Terminal Aerodrome Forecast
Issued by NWS

Home | Current Version | Previous Version | Text Only | Print | Product List | Glossary On
Versions: 1 2 3 4 5 6 7 8 9 10 11 12
000
FTUS45 KPIH 272328
TAFSUN
TAF
KSUN 272328Z 2800/2824 33010KT P6SM FEW050 BKN090
     FM280400 30011KT P6SM SKC
     FM280600 32007KT P6SM SKC
     FM281700 17008KT P6SM FEW070=

USA.gov is the U.S. government's official web portal to all federal, state and local government web resources and services.